createdAt,value
2022-09-09T00:01:39.960Z,15.15
2022-09-09T00:06:47.662Z,15.35
2022-09-09T00:11:54.996Z,15.43
2022-09-09T00:17:05.010Z,15.37
2022-09-09T00:22:17.788Z,15.36
2022-09-09T00:27:24.618Z,15.36
2022-09-09T00:32:32.310Z,15.37
2022-09-09T00:37:36.399Z,15.46
2022-09-09T00:42:43.918Z,15.50
2022-09-09T00:47:51.779Z,15.31
2022-09-09T00:53:07.361Z,15.29
2022-09-09T00:58:11.089Z,15.34
2022-09-09T01:03:25.016Z,15.39
2022-09-09T01:08:50.047Z,15.34
2022-09-09T01:13:59.971Z,15.38
2022-09-09T01:19:10.795Z,15.45
2022-09-09T01:24:24.173Z,15.13
2022-09-09T01:29:40.307Z,14.95
2022-09-09T01:34:43.909Z,15.08
2022-09-09T01:39:47.085Z,15.02
2022-09-09T01:44:55.272Z,15.33
2022-09-09T01:49:58.348Z,15.37
2022-09-09T01:55:04.025Z,15.11
2022-09-09T02:00:17.140Z,15.27
2022-09-09T02:05:30.653Z,15.30
2022-09-09T02:10:42.342Z,15.26
2022-09-09T02:16:01.730Z,15.18
2022-09-09T02:21:05.377Z,14.84
2022-09-09T02:26:09.870Z,14.96
2022-09-09T02:31:16.127Z,14.96
2022-09-09T02:36:20.966Z,14.99
2022-09-09T02:41:28.959Z,15.00
2022-09-09T02:46:46.683Z,15.03
2022-09-09T02:51:57.024Z,15.13
2022-09-09T02:57:06.625Z,15.25
2022-09-09T03:02:15.435Z,15.24
2022-09-09T03:07:21.976Z,15.21
2022-09-09T03:12:27.061Z,15.25
2022-09-09T03:17:31.338Z,15.23
2022-09-09T03:22:35.193Z,15.26
2022-09-09T03:27:38.180Z,15.26
2022-09-09T03:32:47.122Z,15.25
2022-09-09T03:37:51.906Z,15.30
2022-09-09T03:42:55.474Z,15.30
2022-09-09T03:47:59.717Z,15.38
2022-09-09T03:53:02.545Z,15.34
2022-09-09T03:58:05.469Z,15.32
2022-09-09T04:03:13.273Z,15.33
2022-09-09T04:08:16.142Z,15.38
2022-09-09T04:13:20.696Z,15.35
2022-09-09T04:18:26.924Z,15.46
2022-09-09T04:23:30.820Z,15.28
2022-09-09T04:28:37.281Z,15.37
2022-09-09T04:33:44.728Z,15.15
2022-09-09T04:38:48.385Z,15.36
2022-09-09T04:43:51.516Z,15.29
2022-09-09T04:48:55.772Z,15.07
2022-09-09T04:54:03.367Z,14.44
2022-09-09T04:59:07.440Z,14.27
2022-09-09T05:04:20.577Z,14.42
2022-09-09T05:09:23.854Z,14.50
2022-09-09T05:14:28.185Z,14.50
2022-09-09T05:19:32.760Z,14.62
2022-09-09T05:24:35.689Z,14.72
2022-09-09T05:29:39.974Z,14.78
2022-09-09T05:34:46.252Z,14.96
2022-09-09T05:39:49.192Z,15.02
2022-09-09T05:44:55.440Z,14.72
2022-09-09T05:49:59.859Z,14.76
2022-09-09T05:55:04.888Z,14.86
2022-09-09T06:00:09.258Z,14.99
2022-09-09T06:05:18.019Z,15.26
2022-09-09T06:10:22.478Z,15.57
2022-09-09T06:15:25.664Z,15.84
2022-09-09T06:20:31.577Z,15.90
2022-09-09T06:25:35.397Z,16.10
2022-09-09T06:30:39.443Z,16.22
2022-09-09T06:35:44.342Z,16.33
2022-09-09T06:40:53.902Z,16.52
2022-09-09T06:45:58.325Z,16.73
2022-09-09T06:51:08.531Z,17.21
2022-09-09T06:56:24.254Z,17.61
2022-09-09T07:01:31.471Z,17.66
2022-09-09T07:06:41.293Z,17.17
2022-09-09T07:11:49.499Z,17.18
2022-09-09T07:16:57.522Z,16.66
2022-09-09T07:22:04.622Z,16.54
2022-09-09T07:27:08.066Z,16.70
2022-09-09T07:32:12.501Z,16.66
2022-09-09T07:37:18.039Z,16.51
2022-09-09T07:42:22.002Z,16.83
2022-09-09T07:47:26.023Z,16.87
2022-09-09T07:52:30.374Z,16.92
2022-09-09T07:57:37.189Z,17.13
2022-09-09T08:02:41.082Z,16.77
2022-09-09T08:07:47.109Z,17.03
2022-09-09T08:13:07.764Z,17.24
2022-09-09T08:18:13.616Z,17.47
2022-09-09T08:23:17.876Z,17.66
2022-09-09T08:28:22.009Z,18.07
2022-09-09T08:33:26.060Z,18.73
2022-09-09T08:38:30.601Z,18.78
2022-09-09T08:43:35.498Z,18.60
2022-09-09T08:48:54.190Z,18.61
2022-09-09T08:54:01.846Z,19.58
2022-09-09T08:59:06.221Z,19.42
2022-09-09T09:04:40.300Z,18.30
2022-09-09T09:09:59.695Z,18.52
2022-09-09T09:15:03.528Z,18.23
2022-09-09T09:20:13.841Z,18.98
2022-09-09T09:25:21.393Z,19.37
2022-09-09T09:30:30.617Z,19.10
2022-09-09T09:35:42.964Z,18.65
2022-09-09T09:40:58.886Z,19.22
2022-09-09T09:46:17.539Z,19.19
2022-09-09T09:51:24.440Z,19.17
2022-09-09T09:56:31.036Z,19.25
2022-09-09T10:01:37.339Z,18.08
2022-09-09T10:06:45.652Z,17.84
2022-09-09T10:12:00.432Z,17.94
2022-09-09T10:17:17.850Z,17.91
2022-09-09T10:22:28.507Z,18.79
2022-09-09T10:27:41.357Z,20.27
2022-09-09T10:32:52.206Z,20.23
2022-09-09T10:38:14.852Z,20.75
2022-09-09T10:43:31.842Z,20.72
2022-09-09T10:48:49.255Z,21.05
2022-09-09T10:54:07.462Z,20.87
2022-09-09T10:59:16.153Z,21.94
2022-09-09T11:04:24.462Z,22.91
2022-09-09T11:09:33.124Z,22.73
2022-09-09T11:14:41.479Z,22.89
2022-09-09T11:19:46.022Z,23.68
2022-09-09T11:24:53.712Z,22.58
2022-09-09T11:30:27.236Z,23.21
2022-09-09T11:35:49.221Z,22.88
2022-09-09T11:41:00.214Z,22.84
2022-09-09T11:46:05.368Z,23.49
2022-09-09T11:51:16.488Z,23.70
2022-09-09T11:56:32.335Z,24.76
2022-09-09T12:01:42.586Z,23.12
2022-09-09T12:06:47.837Z,20.88
2022-09-09T12:11:51.589Z,20.31
2022-09-09T12:16:55.849Z,20.65
2022-09-09T12:22:09.487Z,21.15
2022-09-09T12:27:20.754Z,21.87
2022-09-09T12:32:27.678Z,23.65
2022-09-09T12:37:37.041Z,23.66
2022-09-09T12:42:42.795Z,23.07
2022-09-09T12:47:50.400Z,24.36
2022-09-09T12:52:56.027Z,24.52
2022-09-09T12:58:01.221Z,24.50
2022-09-09T13:03:19.172Z,23.73
2022-09-09T13:08:22.747Z,23.26
2022-09-09T13:13:31.008Z,23.33
2022-09-09T13:18:39.041Z,22.49
2022-09-09T13:23:42.137Z,23.05
2022-09-09T13:28:47.330Z,22.98
2022-09-09T13:33:54.061Z,22.62
2022-09-09T13:39:00.473Z,22.20
2022-09-09T13:44:04.797Z,22.52
2022-09-09T13:49:24.129Z,22.71
2022-09-09T13:54:26.914Z,21.85
2022-09-09T13:59:53.906Z,23.19
2022-09-09T14:04:56.278Z,24.13
2022-09-09T14:10:01.382Z,24.82
2022-09-09T14:15:05.067Z,23.29
2022-09-09T14:20:11.147Z,23.02
2022-09-09T14:25:15.317Z,23.99
2022-09-09T14:30:18.372Z,23.76
2022-09-09T14:35:23.207Z,24.63
2022-09-09T14:40:26.297Z,22.42
2022-09-09T14:45:29.409Z,21.41
2022-09-09T14:50:33.810Z,21.84
2022-09-09T14:55:36.868Z,21.33
2022-09-09T15:00:40.094Z,21.47
2022-09-09T15:05:44.340Z,21.26
2022-09-09T15:10:48.232Z,21.82
2022-09-09T15:15:52.196Z,21.31
2022-09-09T15:20:57.323Z,21.49
2022-09-09T15:26:01.345Z,21.00
2022-09-09T15:31:08.314Z,21.60
2022-09-09T15:36:17.882Z,22.48
2022-09-09T15:41:22.527Z,22.31
2022-09-09T15:46:29.153Z,21.31
2022-09-09T15:51:49.236Z,20.54
2022-09-09T15:56:55.843Z,20.93
2022-09-09T16:02:00.973Z,21.02
2022-09-09T16:07:07.639Z,20.69
2022-09-09T16:12:12.904Z,20.75
2022-09-09T16:17:16.319Z,20.06
2022-09-09T16:22:22.853Z,20.55
2022-09-09T16:27:25.946Z,20.76
2022-09-09T16:32:29.093Z,19.85
2022-09-09T16:37:34.999Z,20.52
2022-09-09T16:42:39.700Z,20.21
2022-09-09T16:47:42.848Z,20.17
2022-09-09T16:52:46.890Z,19.23
2022-09-09T16:57:50.259Z,18.85
2022-09-09T17:02:53.134Z,18.82
2022-09-09T17:07:58.358Z,18.77
2022-09-09T17:13:02.601Z,18.40
2022-09-09T17:18:05.793Z,18.08
2022-09-09T17:23:10.941Z,17.75
2022-09-09T17:28:13.771Z,17.32
2022-09-09T17:33:16.810Z,16.97
2022-09-09T17:38:23.511Z,16.79
2022-09-09T17:43:29.594Z,16.93
2022-09-09T17:48:32.510Z,17.16
2022-09-09T17:53:40.582Z,17.19
2022-09-09T17:58:44.082Z,17.05
2022-09-09T18:03:48.967Z,16.93
2022-09-09T18:08:56.507Z,16.86
2022-09-09T18:14:01.554Z,16.86
2022-09-09T18:19:06.346Z,16.75
2022-09-09T18:24:11.652Z,16.57
2022-09-09T18:29:16.973Z,16.73
2022-09-09T18:34:22.005Z,16.77
2022-09-09T18:39:28.820Z,16.69
2022-09-09T18:44:34.586Z,16.65
2022-09-09T18:49:37.453Z,16.67
2022-09-09T18:54:45.914Z,16.57
2022-09-09T18:59:49.179Z,16.59
2022-09-09T19:04:52.108Z,16.61
2022-09-09T19:09:56.396Z,16.64
2022-09-09T19:14:59.830Z,16.58
2022-09-09T19:20:03.186Z,16.54
2022-09-09T19:25:08.688Z,16.51
2022-09-09T19:30:13.461Z,16.41
2022-09-09T19:35:16.649Z,16.48
2022-09-09T19:40:22.114Z,16.39
2022-09-09T19:45:24.961Z,16.38
2022-09-09T19:50:29.058Z,16.23
2022-09-09T19:55:35.372Z,16.12
2022-09-09T20:00:39.473Z,16.15
2022-09-09T20:05:42.519Z,16.02
2022-09-09T20:10:54.387Z,15.80
2022-09-09T20:16:00.378Z,15.86
2022-09-09T20:21:05.700Z,15.78
2022-09-09T20:26:12.898Z,15.77
2022-09-09T20:31:17.516Z,15.69
2022-09-09T20:36:22.697Z,15.58
2022-09-09T20:41:29.269Z,15.47
2022-09-09T20:46:35.161Z,15.65
2022-09-09T20:51:38.781Z,15.67
2022-09-09T20:56:45.172Z,15.55
2022-09-09T21:01:48.635Z,15.60
2022-09-09T21:06:51.830Z,15.60
2022-09-09T21:11:55.979Z,15.57
2022-09-09T21:16:58.863Z,15.50
2022-09-09T21:22:01.720Z,15.14
2022-09-09T21:27:06.340Z,15.24
2022-09-09T21:32:09.104Z,15.45
2022-09-09T21:37:12.126Z,15.12
2022-09-09T21:42:16.267Z,15.21
2022-09-09T21:47:19.269Z,14.98
2022-09-09T21:52:22.146Z,14.95
2022-09-09T21:57:26.333Z,15.02
2022-09-09T22:02:29.399Z,15.10
2022-09-09T22:07:33.189Z,15.03
2022-09-09T22:12:37.366Z,14.80
2022-09-09T22:17:41.006Z,14.95
2022-09-09T22:22:43.683Z,14.78
2022-09-09T22:27:47.829Z,14.85
2022-09-09T22:32:50.887Z,14.92
2022-09-09T22:37:55.719Z,14.84
2022-09-09T22:42:59.777Z,14.87
2022-09-09T22:48:02.766Z,14.80
2022-09-09T22:53:06.124Z,15.09
2022-09-09T22:58:10.934Z,14.98
2022-09-09T23:03:13.746Z,15.10
2022-09-09T23:08:18.699Z,15.03
2022-09-09T23:13:24.204Z,15.17
2022-09-09T23:18:27.010Z,15.20
2022-09-09T23:23:29.795Z,14.98
2022-09-09T23:28:34.946Z,15.09
2022-09-09T23:33:38.180Z,15.07
2022-09-09T23:38:41.859Z,15.10
2022-09-09T23:43:45.928Z,15.17
2022-09-09T23:48:50.601Z,15.09
2022-09-09T23:53:57.025Z,15.06
2022-09-09T23:59:01.605Z,14.78
